Ottawa, IL (61350)

4:37 PM CST on January 23, 2017 (GMT -0600)
Desoto St., Center/North Ottawa IL | | Change Station
Active Advisory: Flood Warning, Flood Advisory

Elev 497 ft 41.36 °N, 88.84 °W | Updated 1 minute ago

Overcast
Overcast
40.9 °F
Feels Like 41 °F
N
1.0
Wind Variable Wind from West
Gusts 3.0 mph

Today
High -- | Low -- °F
--% Chance of Precip.
Yesterday
High -- | Low -- °F
Precip. -- in
Pressure 29.79 in
Visibility 10.0 miles
Clouds Overcast 2100 ft
Windchill 41 °F
Dew Point 38 °F
Humidity 88%
Rainfall 0.00 in
Snow Depth Not available.
7:14 AM 5:00 PM
Waning Crescent, 16% visible
METAR KVYS 232215Z AUTO 33009KT 10SM OVC021 04/01 A2979 RMK AO2 T00410013
Pressure 29.79 in
Visibility 10.0 miles
Clouds Overcast 2100 ft
Windchill 41 °F
Dew Point 38 °F
Humidity 88%
Rainfall 0.00 in
Snow Depth Not available.
7:14 AM 5:00 PM
Waning Crescent, 16% visible
METAR KVYS 232215Z AUTO 33009KT 10SM OVC021 04/01 A2979 RMK AO2 T00410013

Get Your Daily Forecast Email!

Thanks for signing up!

Be on the lookout for a verification email in your inbox.

You'll start receiving the daily forecast at 8 AM.

×

10-Day Weather Forecast

Almanac

Astronomy

Jan. 23, 2017 Rise Set
Actual Time
Civil Twilight
Nautical Twilight
Astronomical Twilight
Moon
Length of Visible Light
Length of Day
Tomorrow will be .
, % of the Moon is Illuminated

Today's Extremes

State Highs State Lows

Community

WunderPhotos

Upload Photos

1,962,540 photos uploaded!

WunderBlog® & News

Nearby

Air Quality

  Air Quality AQ Index Pollutant
Not available.

Snow Depth

Station Depth Elevation

Earthquake Activity

City Distance Mag. Time & Date
Minimum magnitude displayed is 2.5.

Coastal Water Temperatures

Place Temperature

Stations

Nearby Weather Stations

Station Location Temp. Windchill Dew Point Humidity Wind Precip. Elev Updated Type
                   

Watches & Warnings

Flood Warning
Issued: 11:00 AM CST Jan. 23, 2017 – National Weather Service

The Flood Warning continues for
the Illinois River at La Salle.
* Until Wednesday evening.
* At 1045 am Monday the stage was 22.4 feet.
* Flood stage is 20.0 feet.
* Minor flooding is occurring and minor flooding is forecast.
* Forecast... the river will continue to fall to below flood stage by
Wednesday afternoon.
* Impact... at 22.0 feet... Riverside parking lot at Starved Rock State
Park floods.


Lat... Lon 4137 8896 4135 8929 4126 8930 4128 8896


Acs


Flood Advisory
Issued: 11:02 AM CST Jan. 23, 2017 – National Weather Service

The Flood Advisory continues for
the Illinois River at Ottawa
* until Wednesday afternoon.
* At 1030 am Monday the stage was 461.8 feet.
* Action stage is 461.0 feet.
* Flood stage is 463.0 feet.
* Forecast... the river will continue to fall.


Lat... Lon 4135 8868 4137 8896 4128 8897 4127 8867


Acs